UAE2PL OMDB-OERK
Flight info
| Callsign | UAE2PL |
|---|---|
| Flight time | N/A |
| Altitude | 38000 |
| Route | SENPA N571 ALPOB L768 ULADA T136 OTISU N112 GETOT Q212 ASNUM |
| Aircraft | B77W/H-SDE1E2E3FGHIJ2J3J4J5M1RWXY/LB1D1 |
Departure
| Time | 2026-05-06 13:37 |
|---|---|
| Airport | Dubai International Airport (OMDB) |
Arrival
| Time | N/A |
|---|---|
| Airport | King Khalid International Airport (OERK) |
| Time | Latitude | Longitude | Altitude | Speed | Heading |
|---|---|---|---|---|---|
| 2026-05-06 13:21 | 25.24766 | 55.36496 | 27 ft | 0 kts | 211° |
| 2026-05-06 13:24 | 25.24770 | 55.36498 | 27 ft | 2 kts | 211° |
| 2026-05-06 13:24 | 25.24786 | 55.36509 | 26 ft | 3 kts | 211° |
| 2026-05-06 13:24 | 25.24804 | 55.36520 | 25 ft | 3 kts | 211° |
| 2026-05-06 13:24 | 25.24821 | 55.36532 | 24 ft | 3 kts | 208° |
| 2026-05-06 13:25 | 25.24837 | 55.36540 | 24 ft | 3 kts | 189° |
| 2026-05-06 13:25 | 25.24851 | 55.36541 | 25 ft | 3 kts | 161° |
| 2026-05-06 13:25 | 25.24862 | 55.36536 | 25 ft | 3 kts | 127° |
| 2026-05-06 13:25 | 25.24868 | 55.36527 | 25 ft | 2 kts | 121° |
| 2026-05-06 13:26 | 25.24878 | 55.36508 | 24 ft | 3 kts | 121° |
| 2026-05-06 13:26 | 25.24883 | 55.36498 | 26 ft | 0 kts | 121° |
| 2026-05-06 13:28 | 25.24881 | 55.36502 | 26 ft | 3 kts | 121° |
| 2026-05-06 13:29 | 25.24857 | 55.36545 | 25 ft | 10 kts | 121° |
| 2026-05-06 13:29 | 25.24814 | 55.36637 | 27 ft | 15 kts | 114° |
| 2026-05-06 13:29 | 25.24784 | 55.36743 | 28 ft | 14 kts | 103° |
| 2026-05-06 13:29 | 25.24756 | 55.36842 | 29 ft | 13 kts | 114° |
| 2026-05-06 13:30 | 25.24712 | 55.36929 | 30 ft | 13 kts | 121° |
| 2026-05-06 13:30 | 25.24664 | 55.37014 | 32 ft | 13 kts | 122° |
| 2026-05-06 13:30 | 25.24616 | 55.37099 | 34 ft | 13 kts | 122° |
| 2026-05-06 13:30 | 25.24569 | 55.37184 | 35 ft | 13 kts | 120° |
| 2026-05-06 13:31 | 25.24522 | 55.37270 | 37 ft | 13 kts | 122° |
| 2026-05-06 13:31 | 25.24474 | 55.37354 | 39 ft | 13 kts | 122° |
| 2026-05-06 13:31 | 25.24427 | 55.37439 | 41 ft | 13 kts | 121° |
| 2026-05-06 13:31 | 25.24380 | 55.37524 | 43 ft | 13 kts | 121° |
| 2026-05-06 13:32 | 25.24338 | 55.37601 | 45 ft | 9 kts | 121° |
| 2026-05-06 13:32 | 25.24318 | 55.37665 | 46 ft | 8 kts | 84° |
| 2026-05-06 13:32 | 25.24352 | 55.37712 | 46 ft | 8 kts | 43° |
| 2026-05-06 13:32 | 25.24398 | 55.37748 | 46 ft | 8 kts | 33° |
| 2026-05-06 13:33 | 25.24466 | 55.37799 | 46 ft | 17 kts | 35° |
| 2026-05-06 13:33 | 25.24590 | 55.37895 | 47 ft | 20 kts | 34° |
| 2026-05-06 13:33 | 25.24685 | 55.37963 | 47 ft | 10 kts | 32° |
| 2026-05-06 13:33 | 25.24746 | 55.38003 | 47 ft | 10 kts | 30° |
| 2026-05-06 13:34 | 25.24808 | 55.38014 | 46 ft | 10 kts | 333° |
| 2026-05-06 13:34 | 25.24847 | 55.37960 | 45 ft | 2 kts | 303° |
| 2026-05-06 13:36 | 25.24884 | 55.37898 | 44 ft | 36 kts | 303° |
| 2026-05-06 13:37 | 25.25169 | 55.37384 | 32 ft | 118 kts | 301° |
| 2026-05-06 13:37 | 25.25723 | 55.36389 | 30 ft | 181 kts | 301° |
| 2026-05-06 13:37 | 25.26379 | 55.35122 | 492 ft | 192 kts | 302° |
| 2026-05-06 13:37 | 25.27050 | 55.33881 | 1276 ft | 187 kts | 302° |
| 2026-05-06 13:38 | 25.27753 | 55.32646 | 1966 ft | 192 kts | 302° |
| 2026-05-06 13:38 | 25.28470 | 55.31379 | 2594 ft | 197 kts | 300° |
| 2026-05-06 13:38 | 25.29168 | 55.30051 | 3159 ft | 202 kts | 288° |
| 2026-05-06 13:38 | 25.29171 | 55.28527 | 3647 ft | 203 kts | 248° |
| 2026-05-06 13:39 | 25.28591 | 55.27135 | 4080 ft | 199 kts | 243° |
| 2026-05-06 13:39 | 25.27987 | 55.25732 | 4540 ft | 206 kts | 242° |
| 2026-05-06 13:39 | 25.27368 | 55.24287 | 5202 ft | 207 kts | 242° |
| 2026-05-06 13:39 | 25.26748 | 55.22838 | 5868 ft | 210 kts | 242° |
| 2026-05-06 13:40 | 25.26120 | 55.21369 | 6519 ft | 212 kts | 242° |
| 2026-05-06 13:40 | 25.25484 | 55.19877 | 7115 ft | 216 kts | 242° |
| 2026-05-06 13:40 | 25.24839 | 55.18362 | 7713 ft | 219 kts | 242° |
| 2026-05-06 13:40 | 25.24186 | 55.16828 | 8316 ft | 223 kts | 242° |
| 2026-05-06 13:41 | 25.23454 | 55.15310 | 8928 ft | 225 kts | 237° |
| 2026-05-06 13:41 | 25.22660 | 55.13804 | 9554 ft | 228 kts | 237° |
| 2026-05-06 13:41 | 25.21850 | 55.12269 | 10067 ft | 238 kts | 237° |
| 2026-05-06 13:41 | 25.20972 | 55.10601 | 10264 ft | 264 kts | 238° |
| 2026-05-06 13:42 | 25.20022 | 55.08750 | 10569 ft | 287 kts | 242° |
| 2026-05-06 13:42 | 25.19211 | 55.06713 | 11257 ft | 295 kts | 247° |
| 2026-05-06 13:42 | 25.18458 | 55.04590 | 12233 ft | 296 kts | 249° |